Saga Sapphire — 9HOF8 — position and weather

sailwx.info

Track history (hours):
 
Tides and Currents Weather Stations Pressure Air Temp Water Temp Dewpoint Dewpoint Depression Visibility Wind Speed Wind Dir Waves Ship Positions

Saga Sapphire

Last reported at 2015-Apr-27 03:28 UTC. Time now 2015-Apr-27 09:12 UTC.
Position N 35°21' E 025°09'.

Length 200 m; draft 8.6 m.

Type: Passenger vessel. MMSI: 256208000.

Date/timePositionNaut miles runAvg speedWind from/ knotsBaromVisibWave heightAir tempDewpointWater temp
2015-Apr-27 03:28N 35°21' E 025°09'7 6.7
2015-Apr-27 02:26N 35°28' E 025°09'2111.1
2015-Apr-27 00:33N 35°48' E 025°17'7 7.4
2015-Apr-26 23:33N 35°55' E 025°15'8 8.5
2015-Apr-26 22:33N 35°59' E 025°25'8 8.2
2015-Apr-26 21:33N 36°06' E 025°29'8 8.4
2015-Apr-26 20:33N 36°14' E 025°32'9 8.5
2015-Apr-26 19:32N 36°22' E 025°36'8 8.3
2015-Apr-26 18:33N 36°30' E 025°37'8 8.3
2015-Apr-26 17:33N 36°39' E 025°37'8 8.1
2015-Apr-26 16:33N 36°46' E 025°41'8 8.4
2015-Apr-26 15:33N 36°53' E 025°46'10 8.7
2015-Apr-26 14:27N 37°01' E 025°54'16 8.2
2015-Apr-26 12:34N 37°16' E 025°51'1211.8
2015-Apr-26 11:33N 37°27' E 025°45'1010.4
2015-Apr-26 10:34N 37°37' E 025°45'9 8.6
2015-Apr-26 09:34N 37°46' E 025°44'145 8.0
2015-Apr-25 15:22N 40°10' E 026°08'117 5.1
2015-Apr-24 16:30N 40°52' E 028°32'1414.6
2015-Apr-24 15:32N 40°54' E 028°51'1010.0
2015-Apr-24 14:33N 41°02' E 028°59'4 0.1
2015-Apr-23 05:33N 40°58' E 028°59'1212.0
2015-Apr-23 04:31N 40°51' E 028°45'179 7.5
2015-Apr-22 04:32N 39°52' E 025°03'8 6.8
2015-Apr-22 03:17N 39°52' E 024°52'31 9.5
2015-Apr-22 00:05N 39°51' E 024°12'5 9.9
2015-Apr-21 23:32N 39°51' E 024°05'7 0.3
2015-Apr-20 22:13N 39°50' E 023°56'1116.1
2015-Apr-20 21:34N 39°49' E 024°10'3415.3
2015-Apr-20 19:21N 39°44' E 024°54'  
2015-Apr-18 14:33N 37°31' E 025°18'4 3.6
2015-Apr-18 13:33N 37°28' E 025°19'0 0.0
2015-Apr-18 12:27N 37°28' E 025°19'0 0.0
2015-Apr-18 11:33N 37°28' E 025°19'0 0.0
2015-Apr-18 10:33N 37°28' E 025°19'0 0.0
2015-Apr-18 09:33N 37°28' E 025°19'0 0.0
2015-Apr-18 08:27N 37°28' E 025°19'0 0.0
2015-Apr-18 07:33N 37°28' E 025°19'0 0.0
2015-Apr-18 06:33N 37°28' E 025°19'0 0.0
2015-Apr-18 05:33N 37°28' E 025°19'0 0.0
2015-Apr-18 04:30N 37°28' E 025°19'5 5.0
2015-Apr-18 03:33N 37°28' E 025°13'1312.8
2015-Apr-18 02:33N 37°21' E 024°60'58 9.6
2015-Apr-17 20:31N 37°19' E 023°47'1313.0
2015-Apr-17 19:33N 37°32' E 023°45'1312.8
2015-Apr-17 18:33N 37°44' E 023°40'1212.0
2015-Apr-17 17:33N 37°56' E 023°37'1 1.4
2015-Apr-17 16:33N 37°56' E 023°38'0 0.0
2015-Apr-17 15:33N 37°56' E 023°38'0 0.0
2015-Apr-17 14:33N 37°56' E 023°38'0 0.0
2015-Apr-17 13:33N 37°56' E 023°38'0 0.0
2015-Apr-17 12:33N 37°56' E 023°38'0 0.0
2015-Apr-17 11:33N 37°56' E 023°38'0 0.0
2015-Apr-17 10:33N 37°56' E 023°38'0 0.0
2015-Apr-17 09:33N 37°56' E 023°38'0 0.0
2015-Apr-17 08:33N 37°56' E 023°38'0 0.0
2015-Apr-17 07:33N 37°56' E 023°38'0 0.0
2015-Apr-17 06:27N 37°56' E 023°38'0 0.0
2015-Apr-17 05:33N 37°56' E 023°38'0 0.0
2015-Apr-17 04:33N 37°56' E 023°38'0 0.0
2015-Apr-17 03:30N 37°56' E 023°38'  
Track history (hours):
 
Tides and Currents Weather Stations Pressure Air Temp Water Temp Dewpoint Dewpoint Depression Visibility Wind Speed Wind Dir Waves Ship Positions

Saga Sapphire

Last reported at 2015-Apr-27 03:28 UTC. Time now 2015-Apr-27 09:12 UTC.
Position N 35°21' E 025°09'.

Length 200 m; draft 8.6 m.

Type: Passenger vessel. MMSI: 256208000.

Date/timePositionNaut miles runAvg speedWind from/ knotsBaromVisibWave heightAir tempDewpointWater temp
2015-Apr-27 03:28N 35°21' E 025°09'7 6.7
2015-Apr-27 02:26N 35°28' E 025°09'2111.1
2015-Apr-27 00:33N 35°48' E 025°17'7 7.4
2015-Apr-26 23:33N 35°55' E 025°15'8 8.5
2015-Apr-26 22:33N 35°59' E 025°25'8 8.2
2015-Apr-26 21:33N 36°06' E 025°29'8 8.4
2015-Apr-26 20:33N 36°14' E 025°32'9 8.5
2015-Apr-26 19:32N 36°22' E 025°36'8 8.3
2015-Apr-26 18:33N 36°30' E 025°37'8 8.3
2015-Apr-26 17:33N 36°39' E 025°37'8 8.1
2015-Apr-26 16:33N 36°46' E 025°41'8 8.4
2015-Apr-26 15:33N 36°53' E 025°46'10 8.7
2015-Apr-26 14:27N 37°01' E 025°54'16 8.2
2015-Apr-26 12:34N 37°16' E 025°51'1211.8
2015-Apr-26 11:33N 37°27' E 025°45'1010.4
2015-Apr-26 10:34N 37°37' E 025°45'9 8.6
2015-Apr-26 09:34N 37°46' E 025°44'145 8.0
2015-Apr-25 15:22N 40°10' E 026°08'117 5.1
2015-Apr-24 16:30N 40°52' E 028°32'1414.6
2015-Apr-24 15:32N 40°54' E 028°51'1010.0
2015-Apr-24 14:33N 41°02' E 028°59'4 0.1
2015-Apr-23 05:33N 40°58' E 028°59'1212.0
2015-Apr-23 04:31N 40°51' E 028°45'179 7.5
2015-Apr-22 04:32N 39°52' E 025°03'8 6.8
2015-Apr-22 03:17N 39°52' E 024°52'31 9.5
2015-Apr-22 00:05N 39°51' E 024°12'5 9.9
2015-Apr-21 23:32N 39°51' E 024°05'7 0.3
2015-Apr-20 22:13N 39°50' E 023°56'1116.1
2015-Apr-20 21:34N 39°49' E 024°10'3415.3
2015-Apr-20 19:21N 39°44' E 024°54'  
2015-Apr-18 14:33N 37°31' E 025°18'4 3.6
2015-Apr-18 13:33N 37°28' E 025°19'0 0.0
2015-Apr-18 12:27N 37°28' E 025°19'0 0.0
2015-Apr-18 11:33N 37°28' E 025°19'0 0.0
2015-Apr-18 10:33N 37°28' E 025°19'0 0.0
2015-Apr-18 09:33N 37°28' E 025°19'0 0.0
2015-Apr-18 08:27N 37°28' E 025°19'0 0.0
2015-Apr-18 07:33N 37°28' E 025°19'0 0.0
2015-Apr-18 06:33N 37°28' E 025°19'0 0.0
2015-Apr-18 05:33N 37°28' E 025°19'0 0.0
2015-Apr-18 04:30N 37°28' E 025°19'5 5.0
2015-Apr-18 03:33N 37°28' E 025°13'1312.8
2015-Apr-18 02:33N 37°21' E 024°60'58 9.6
2015-Apr-17 20:31N 37°19' E 023°47'1313.0
2015-Apr-17 19:33N 37°32' E 023°45'1312.8
2015-Apr-17 18:33N 37°44' E 023°40'1212.0
2015-Apr-17 17:33N 37°56' E 023°37'1 1.4
2015-Apr-17 16:33N 37°56' E 023°38'0 0.0
2015-Apr-17 15:33N 37°56' E 023°38'0 0.0
2015-Apr-17 14:33N 37°56' E 023°38'0 0.0
2015-Apr-17 13:33N 37°56' E 023°38'0 0.0
2015-Apr-17 12:33N 37°56' E 023°38'0 0.0
2015-Apr-17 11:33N 37°56' E 023°38'0 0.0
2015-Apr-17 10:33N 37°56' E 023°38'0 0.0
2015-Apr-17 09:33N 37°56' E 023°38'0 0.0
2015-Apr-17 08:33N 37°56' E 023°38'0 0.0
2015-Apr-17 07:33N 37°56' E 023°38'0 0.0
2015-Apr-17 06:27N 37°56' E 023°38'0 0.0
2015-Apr-17 05:33N 37°56' E 023°38'0 0.0
2015-Apr-17 04:33N 37°56' E 023°38'0 0.0
2015-Apr-17 03:30N 37°56' E 023°38'  

Dump ship's entire track history